CW8540 Weather Reports


time (UTC)temp
C
wind
direction
speed
KPH
gust
KPH
rain 1hr
cm
rain 24hr
cm
rain mn
cm
humidity
%
barometer
mb
20260507141545 12 298 12.9 22.5 0.00 0.00 0.00 53 1009.3
20260507140046 12 301 14.5 24.1 0.00 0.00 0.00 52 1009.1
20260507134544 11 281 9.7 27.4 0.00 0.00 0.00 53 1009.0
20260507133048 11 296 12.9 20.9 0.00 0.00 0.00 56 1008.7
20260507131552 10 308 4.8 12.9 0.00 0.00 0.00 61 1008.6
20260507130053 9 301 8.0 14.5 0.00 0.00 0.00 62 1008.5
20260507124559 8 286 6.4 12.9 0.00 0.00 0.00 65 1008.3
20260507123045 8 295 8.0 16.1 0.00 0.00 0.00 65 1008.2
20260507121543 8 299 8.0 14.5 0.00 0.00 0.00 63 1008.3
20260507120042 8 314 8.0 12.9 0.00 0.00 0.00 65 1008.1
20260507114559 7 289 0.0 4.8 0.00 0.00 0.00 65 1008.0
20260507113105 7 292 1.6 4.8 0.00 0.00 0.00 64 1008.1
20260507111547 7 293 1.6 4.8 0.00 0.00 0.00 64 1008.1
20260507110048 7 292 4.8 11.3 0.00 0.00 0.00 64 1008.2
20260507104544 6 304 0.0 6.4 0.00 0.00 0.00 69 1008.1
20260507103050 5 0 1.6 6.4 0.00 0.00 0.00 70 1008.1
20260507101546 4 248 1.6 4.8 0.00 0.00 0.00 69 1008.1
20260507100050 5 0 1.6 4.8 0.00 0.00 0.00 65 1008.0
20260507094546 5 0 0.0 3.2 0.00 0.00 0.00 68 1008.0
20260507093043 5 282 0.0 3.2 0.00 0.00 0.00 67 1008.1
20260507091543 5 284 1.6 4.8 0.00 0.00 0.00 63 1008.1
20260507090049 5 291 1.6 4.8 0.00 0.00 0.00 66 1008.0
20260507084545 5 0 0.0 6.4 0.00 0.00 0.00 65 1008.0
20260507083049 5 0 0.0 0.0 0.00 0.00 0.00 65 1008.0
20260507081553 5 0 0.0 1.6 0.00 0.00 0.00 66 1008.1
20260507080045 5 0 0.0 3.2 0.00 0.00 0.00 65 1008.2
20260507074558 6 0 0.0 0.0 0.00 0.00 0.00 61 1008.2
20260507073042 6 0 0.0 3.2 0.00 0.00 0.00 60 1008.1
20260507071541 6 0 0.0 3.2 0.00 0.00 0.00 60 1007.8
20260507070045 6 0 0.0 3.2 0.00 0.00 0.00 58 1008.0
20260507064548 8 5 0.0 3.2 0.00 0.00 0.00 52 1007.8
20260507063045 8 13 1.6 4.8 0.00 0.00 0.00 52 1007.6
20260507061543 9 0 0.0 3.2 0.00 0.00 0.00 52 1007.6
20260507060045 10 302 0.0 3.2 0.00 0.00 0.00 50 1007.6
20260507054545 10 0 0.0 3.2 0.00 0.00 0.00 50 1007.6
20260507053040 10 215 0.0 6.4 0.00 0.00 0.00 46 1007.5
20260507051547 11 128 4.8 11.3 0.00 0.00 0.00 43 1007.6
20260507050045 11 121 6.4 12.9 0.00 0.00 0.00 42 1007.5
20260507044550 12 104 3.2 12.9 0.00 0.00 0.00 42 1007.8
20260507043056 12 88 9.7 16.1 0.00 0.00 0.00 41 1007.7
20260507041542 12 51 14.5 22.5 0.00 0.00 0.00 41 1007.7
20260507040041 11 46 8.0 17.7 0.00 0.00 0.00 43 1007.6
20260507034546 12 84 9.7 17.7 0.00 0.00 0.00 40 1007.2
20260507033043 13 49 8.0 17.7 0.00 0.00 0.00 41 1007.2
20260507031546 13 83 4.8 9.7 0.00 0.00 0.00 41 1006.9
20260507030042 13 60 4.8 8.0 0.00 0.00 0.00 40 1006.6
20260507024552 13 69 3.2 9.7 0.00 0.00 0.00 38 1006.5
20260507023102 15 84 3.2 14.5 0.00 0.00 0.00 37 1006.4
20260507021545 15 109 4.8 14.5 0.00 0.00 0.00 36 1006.2
20260507020053 15 93 8.0 14.5 0.00 0.00 0.00 35 1006.1
20260507014541 16 92 8.0 17.7 0.00 0.00 0.00 34 1005.9
20260507013040 16 140 6.4 17.7 0.00 0.00 0.00 33 1005.8
20260507011546 16 108 9.7 16.1 0.00 0.00 0.00 31 1006.3
20260507010041 16 92 8.0 16.1 0.00 0.00 0.00 31 1006.3
20260507004544 17 125 12.9 17.7 0.00 0.00 0.00 30 1006.0
20260507003042 17 127 11.3 16.1 0.00 0.00 0.00 29 1005.8
20260507001606 17 73 12.9 17.7 0.00 0.00 0.00 28 1005.6
20260507000044 17 82 12.9 19.3 0.00 0.00 0.00 29 1005.5
20260506234541 17 87 9.7 17.7 0.00 0.00 0.00 28 1005.6
20260506233040 18 107 11.3 19.3 0.00 0.00 0.00 28 1005.5
20260506231549 18 93 14.5 19.3 0.00 0.00 0.00 27 1005.5
20260506230054 18 91 12.9 20.9 0.00 0.00 0.00 27 1005.6
20260506224543 17 67 11.3 17.7 0.00 0.00 0.00 28 1005.5
20260506223042 17 98 11.3 20.9 0.00 0.00 0.00 27 1005.8
20260506221551 18 78 4.8 12.9 0.00 0.00 0.00 30 1005.9
20260506220040 18 121 4.8 9.7 0.00 0.00 0.00 27 1006.4
20260506214553 18 211 4.8 11.3 0.00 0.00 0.00 26 1006.6
20260506213046 18 283 3.2 14.5 0.00 0.00 0.00 26 1006.8
20260506211542 18 171 9.7 16.1 0.00 0.00 0.00 25 1006.9
20260506210052 18 140 6.4 14.5 0.00 0.00 0.00 27 1006.6
20260506204553 18 342 1.6 11.3 0.00 0.00 0.00 26 1006.9
20260506203045 17 127 9.7 20.9 0.00 0.00 0.00 26 1006.9
20260506201540 17 192 4.8 20.9 0.00 0.00 0.00 27 1007.0
20260506200049 17 184 6.4 14.5 0.00 0.00 0.00 26 1007.4
20260506194544 17 157 9.7 24.1 0.00 0.00 0.00 27 1007.4
20260506193045 17 213 9.7 19.3 0.00 0.00 0.00 26 1007.6
20260506191541 16 134 9.7 25.7 0.00 0.00 0.00 27 1007.8
20260506190040 16 205 9.7 22.5 0.00 0.00 0.00 27 1008.0
20260506184549 16 148 12.9 27.4 0.00 0.00 0.00 28 1008.3
20260506183046 15 183 11.3 20.9 0.00 0.00 0.00 28 1008.5
20260506181554 15 198 11.3 19.3 0.00 0.00 0.00 30 1008.8
20260506180052 14 182 11.3 22.5 0.00 0.00 0.00 29 1008.9
20260506174546 14 131 11.3 22.5 0.00 0.00 0.00 30 1009.2
20260506173051 13 142 9.7 19.3 0.00 0.00 0.00 33 1009.3
20260506171546 13 174 11.3 19.3 0.00 0.00 0.00 34 1009.3
20260506170052 12 134 9.7 16.1 0.00 0.00 0.00 38 1009.7
20260506164555 11 205 8.0 16.1 0.00 0.00 0.00 37 1009.9
20260506163059 11 161 6.4 14.5 0.00 0.00 0.00 40 1009.9
20260506161546 10 139 6.4 20.9 0.00 0.00 0.00 40 1010.2
20260506160056 9 199 9.7 17.7 0.00 0.00 0.00 40 1010.4
20260506154549 8 119 11.3 17.7 0.00 0.00 0.00 41 1010.6
20260506153041 8 192 9.7 20.9 0.00 0.00 0.00 43 1010.8
20260506151542 7 134 8.0 16.1 0.00 0.00 0.00 46 1010.9
20260506150101 6 156 6.4 12.9 0.00 0.00 0.00 48 1011.0
20260506144546 5 169 4.8 16.1 0.00 0.00 0.00 52 1011.3
20260506143045 4 150 4.8 11.3 0.00 0.00 0.00 55 1011.6